sensor_id;sensor_type;location;lat;lon;timestamp;temperature;humidity
26041;DHT22;13816;53.628;9.950;2022-07-06T13:16:18;18.30;99.90
26041;DHT22;13816;53.628;9.950;2022-07-06T13:18:44;21.20;99.90
26041;DHT22;13816;53.628;9.950;2022-07-06T13:21:10;21.30;99.80
26041;DHT22;13816;53.628;9.950;2022-07-06T13:23:36;21.30;99.70
26041;DHT22;13816;53.628;9.950;2022-07-06T13:26:02;21.40;99.40
26041;DHT22;13816;53.628;9.950;2022-07-06T13:28:28;21.30;98.90
26041;DHT22;13816;53.628;9.950;2022-07-06T13:30:53;21.20;99.10
26041;DHT22;13816;53.628;9.950;2022-07-06T13:33:19;21.20;99.10
26041;DHT22;13816;53.628;9.950;2022-07-06T13:35:45;21.30;99.40
26041;DHT22;13816;53.628;9.950;2022-07-06T13:38:11;21.40;99.10
26041;DHT22;13816;53.628;9.950;2022-07-06T13:40:36;21.50;98.80
26041;DHT22;13816;53.628;9.950;2022-07-06T13:43:02;21.60;98.30
26041;DHT22;13816;53.628;9.950;2022-07-06T13:45:28;21.50;98.00
26041;DHT22;13816;53.628;9.950;2022-07-06T13:47:55;21.20;98.60
26041;DHT22;13816;53.628;9.950;2022-07-06T13:50:20;21.20;98.50
26041;DHT22;13816;53.628;9.950;2022-07-06T13:52:46;21.10;98.40
26041;DHT22;13816;53.628;9.950;2022-07-06T13:55:11;21.10;97.80
26041;DHT22;13816;53.628;9.950;2022-07-06T13:57:37;21.00;98.20
26041;DHT22;13816;53.628;9.950;2022-07-06T14:00:07;21.10;98.10
26041;DHT22;13816;53.628;9.950;2022-07-06T14:02:34;21.20;97.80
26041;DHT22;13816;53.628;9.950;2022-07-06T14:05:00;21.40;97.70
26041;DHT22;13816;53.628;9.950;2022-07-06T14:07:25;21.50;97.40
26041;DHT22;13816;53.628;9.950;2022-07-06T14:09:51;21.60;97.50
26041;DHT22;13816;53.628;9.950;2022-07-06T14:12:17;21.60;97.00
26041;DHT22;13816;53.628;9.950;2022-07-06T14:14:43;21.60;97.10
26041;DHT22;13816;53.628;9.950;2022-07-06T14:17:09;21.60;97.10
26041;DHT22;13816;53.628;9.950;2022-07-06T14:19:34;21.60;95.90
26041;DHT22;13816;53.628;9.950;2022-07-06T14:22:00;21.80;96.10
26041;DHT22;13816;53.628;9.950;2022-07-06T14:24:26;21.70;96.10
26041;DHT22;13816;53.628;9.950;2022-07-06T14:26:51;21.60;96.30
26041;DHT22;13816;53.628;9.950;2022-07-06T14:29:17;21.40;96.70
26041;DHT22;13816;53.628;9.950;2022-07-06T14:31:43;21.40;97.00
26041;DHT22;13816;53.628;9.950;2022-07-06T14:34:08;21.40;97.40
26041;DHT22;13816;53.628;9.950;2022-07-06T14:36:35;21.40;97.10
26041;DHT22;13816;53.628;9.950;2022-07-06T14:39:03;21.30;97.20
26041;DHT22;13816;53.628;9.950;2022-07-06T14:41:29;21.20;96.80
26041;DHT22;13816;53.628;9.950;2022-07-06T14:43:55;21.00;96.80
26041;DHT22;13816;53.628;9.950;2022-07-06T14:46:21;21.00;97.10
26041;DHT22;13816;53.628;9.950;2022-07-06T14:48:47;21.10;96.80
26041;DHT22;13816;53.628;9.950;2022-07-06T14:51:13;21.10;96.90
26041;DHT22;13816;53.628;9.950;2022-07-06T14:53:38;21.10;97.00
26041;DHT22;13816;53.628;9.950;2022-07-06T14:56:04;21.10;96.70
26041;DHT22;13816;53.628;9.950;2022-07-06T14:58:30;21.10;97.10
26041;DHT22;13816;53.628;9.950;2022-07-06T15:00:56;21.20;97.40
26041;DHT22;13816;53.628;9.950;2022-07-06T15:03:22;21.30;97.50
26041;DHT22;13816;53.628;9.950;2022-07-06T15:05:48;21.40;98.00
26041;DHT22;13816;53.628;9.950;2022-07-06T15:08:14;21.60;97.50
26041;DHT22;13816;53.628;9.950;2022-07-06T15:10:44;21.80;97.00
26041;DHT22;13816;53.628;9.950;2022-07-06T15:13:11;21.80;96.00
26041;DHT22;13816;53.628;9.950;2022-07-06T15:15:41;21.70;95.80
26041;DHT22;13816;53.628;9.950;2022-07-06T15:18:07;21.60;95.90
26041;DHT22;13816;53.628;9.950;2022-07-06T15:20:33;21.60;96.30
26041;DHT22;13816;53.628;9.950;2022-07-06T15:22:59;21.40;95.50
26041;DHT22;13816;53.628;9.950;2022-07-06T15:25:24;21.20;96.40
26041;DHT22;13816;53.628;9.950;2022-07-06T15:27:51;21.10;96.90
26041;DHT22;13816;53.628;9.950;2022-07-06T15:30:17;20.90;97.20
26041;DHT22;13816;53.628;9.950;2022-07-06T15:32:43;20.80;97.40
26041;DHT22;13816;53.628;9.950;2022-07-06T15:35:09;20.80;97.30
26041;DHT22;13816;53.628;9.950;2022-07-06T15:37:35;20.60;97.60
26041;DHT22;13816;53.628;9.950;2022-07-06T15:40:02;20.50;97.60
26041;DHT22;13816;53.628;9.950;2022-07-06T15:42:28;20.50;98.10
26041;DHT22;13816;53.628;9.950;2022-07-06T15:44:54;20.50;98.30
26041;DHT22;13816;53.628;9.950;2022-07-06T15:47:20;20.40;98.50
26041;DHT22;13816;53.628;9.950;2022-07-06T15:49:48;20.40;98.50
26041;DHT22;13816;53.628;9.950;2022-07-06T15:52:14;20.50;98.80
26041;DHT22;13816;53.628;9.950;2022-07-06T15:54:42;20.70;98.40
26041;DHT22;13816;53.628;9.950;2022-07-06T15:57:08;20.90;98.30
26041;DHT22;13816;53.628;9.950;2022-07-06T15:59:33;21.10;97.70
26041;DHT22;13816;53.628;9.950;2022-07-06T16:01:59;21.20;97.80
26041;DHT22;13816;53.628;9.950;2022-07-06T16:04:25;21.40;97.90
26041;DHT22;13816;53.628;9.950;2022-07-06T16:06:52;21.60;97.30
26041;DHT22;13816;53.628;9.950;2022-07-06T16:09:18;21.70;96.90
26041;DHT22;13816;53.628;9.950;2022-07-06T16:11:43;21.80;97.20
26041;DHT22;13816;53.628;9.950;2022-07-06T16:14:09;21.90;97.00
26041;DHT22;13816;53.628;9.950;2022-07-06T16:16:36;22.00;96.70
26041;DHT22;13816;53.628;9.950;2022-07-06T16:19:06;21.80;96.70
26041;DHT22;13816;53.628;9.950;2022-07-06T16:21:32;21.70;96.30
26041;DHT22;13816;53.628;9.950;2022-07-06T16:23:57;21.50;96.80
26041;DHT22;13816;53.628;9.950;2022-07-06T16:26:23;21.60;97.20
26041;DHT22;13816;53.628;9.950;2022-07-06T16:28:49;21.60;96.70
26041;DHT22;13816;53.628;9.950;2022-07-06T16:31:15;21.70;97.00
26041;DHT22;13816;53.628;9.950;2022-07-06T16:33:42;21.80;96.80
26041;DHT22;13816;53.628;9.950;2022-07-06T16:36:09;21.80;96.70
26041;DHT22;13816;53.628;9.950;2022-07-06T16:38:37;21.80;96.40
26041;DHT22;13816;53.628;9.950;2022-07-06T16:41:03;21.80;96.40
26041;DHT22;13816;53.628;9.950;2022-07-06T16:43:29;21.60;96.30
26041;DHT22;13816;53.628;9.950;2022-07-06T16:45:55;21.50;96.30
26041;DHT22;13816;53.628;9.950;2022-07-06T16:48:21;21.50;96.80
26041;DHT22;13816;53.628;9.950;2022-07-06T16:50:47;21.40;96.50
26041;DHT22;13816;53.628;9.950;2022-07-06T16:53:12;21.30;96.50
26041;DHT22;13816;53.628;9.950;2022-07-06T16:55:38;21.20;96.70
26041;DHT22;13816;53.628;9.950;2022-07-06T16:58:04;21.00;96.70
26041;DHT22;13816;53.628;9.950;2022-07-06T17:00:30;20.90;96.80
26041;DHT22;13816;53.628;9.950;2022-07-06T17:02:58;20.70;97.10
26041;DHT22;13816;53.628;9.950;2022-07-06T17:05:24;20.60;97.50
26041;DHT22;13816;53.628;9.950;2022-07-06T17:07:50;20.60;97.60
26041;DHT22;13816;53.628;9.950;2022-07-06T17:10:17;20.50;97.70
26041;DHT22;13816;53.628;9.950;2022-07-06T17:12:42;20.40;97.80
26041;DHT22;13816;53.628;9.950;2022-07-06T17:15:09;20.40;97.70
26041;DHT22;13816;53.628;9.950;2022-07-06T17:17:35;20.40;97.90
26041;DHT22;13816;53.628;9.950;2022-07-06T17:20:01;20.30;98.00
26041;DHT22;13816;53.628;9.950;2022-07-06T17:22:27;20.30;97.90
26041;DHT22;13816;53.628;9.950;2022-07-06T17:24:52;20.30;97.70
26041;DHT22;13816;53.628;9.950;2022-07-06T17:27:18;20.30;97.70
26041;DHT22;13816;53.628;9.950;2022-07-06T17:29:44;20.30;98.00
26041;DHT22;13816;53.628;9.950;2022-07-06T17:32:10;20.30;98.10
26041;DHT22;13816;53.628;9.950;2022-07-06T17:34:38;20.30;98.00
26041;DHT22;13816;53.628;9.950;2022-07-06T17:37:05;20.20;98.00
26041;DHT22;13816;53.628;9.950;2022-07-06T17:39:30;20.10;98.20
26041;DHT22;13816;53.628;9.950;2022-07-06T17:41:56;20.00;98.30
26041;DHT22;13816;53.628;9.950;2022-07-06T17:44:22;19.90;98.40
26041;DHT22;13816;53.628;9.950;2022-07-06T17:46:48;19.80;98.60
26041;DHT22;13816;53.628;9.950;2022-07-06T17:49:13;19.70;98.70
26041;DHT22;13816;53.628;9.950;2022-07-06T17:51:40;19.50;99.00
26041;DHT22;13816;53.628;9.950;2022-07-06T17:54:06;19.40;99.30
26041;DHT22;13816;53.628;9.950;2022-07-06T17:56:32;19.30;99.50
26041;DHT22;13816;53.628;9.950;2022-07-06T17:58:58;19.20;99.70
26041;DHT22;13816;53.628;9.950;2022-07-06T18:01:24;19.10;99.60
26041;DHT22;13816;53.628;9.950;2022-07-06T18:03:50;19.10;99.90
26041;DHT22;13816;53.628;9.950;2022-07-06T18:06:15;19.10;99.90
26041;DHT22;13816;53.628;9.950;2022-07-06T18:08:41;19.00;99.90
26041;DHT22;13816;53.628;9.950;2022-07-06T18:11:09;19.00;99.90
26041;DHT22;13816;53.628;9.950;2022-07-06T18:13:35;19.00;99.90
26041;DHT22;13816;53.628;9.950;2022-07-06T18:16:05;18.90;99.90
26041;DHT22;13816;53.628;9.950;2022-07-06T18:18:32;18.80;99.90
26041;DHT22;13816;53.628;9.950;2022-07-06T18:20:58;19.00;99.90
26041;DHT22;13816;53.628;9.950;2022-07-06T18:23:25;18.80;99.90
26041;DHT22;13816;53.628;9.950;2022-07-06T18:25:52;18.80;99.90
26041;DHT22;13816;53.628;9.950;2022-07-06T18:28:18;18.70;99.90
26041;DHT22;13816;53.628;9.950;2022-07-06T18:30:48;18.60;99.90
26041;DHT22;13816;53.628;9.950;2022-07-06T18:33:15;18.60;99.90
26041;DHT22;13816;53.628;9.950;2022-07-06T18:35:41;18.50;99.90
26041;DHT22;13816;53.628;9.950;2022-07-06T18:38:08;18.50;99.90
26041;DHT22;13816;53.628;9.950;2022-07-06T18:40:35;18.50;99.90
26041;DHT22;13816;53.628;9.950;2022-07-06T18:43:04;18.50;99.90
26041;DHT22;13816;53.628;9.950;2022-07-06T18:45:30;18.60;99.90
26041;DHT22;13816;53.628;9.950;2022-07-06T18:47:56;18.50;99.90
26041;DHT22;13816;53.628;9.950;2022-07-06T18:50:22;18.50;99.90
26041;DHT22;13816;53.628;9.950;2022-07-06T18:52:48;18.50;99.90
26041;DHT22;13816;53.628;9.950;2022-07-06T18:55:14;18.50;99.90
26041;DHT22;13816;53.628;9.950;2022-07-06T18:57:40;18.40;99.90
26041;DHT22;13816;53.628;9.950;2022-07-06T19:00:06;18.30;99.90
26041;DHT22;13816;53.628;9.950;2022-07-06T19:02:33;18.30;99.90
26041;DHT22;13816;53.628;9.950;2022-07-06T19:04:59;18.20;99.90
26041;DHT22;13816;53.628;9.950;2022-07-06T19:07:25;18.20;99.90
26041;DHT22;13816;53.628;9.950;2022-07-06T19:09:50;18.20;99.90
26041;DHT22;13816;53.628;9.950;2022-07-06T19:12:16;18.20;99.90
26041;DHT22;13816;53.628;9.950;2022-07-06T19:14:46;18.20;99.90
26041;DHT22;13816;53.628;9.950;2022-07-06T19:17:12;18.30;99.90
26041;DHT22;13816;53.628;9.950;2022-07-06T19:19:38;18.20;99.90
26041;DHT22;13816;53.628;9.950;2022-07-06T19:22:03;18.20;99.90
26041;DHT22;13816;53.628;9.950;2022-07-06T19:24:29;18.20;99.90
